Brooks, Oregon
Current Conditions -  °F | °C
As of 1:56 AM on Saturday 22 Nov 2014 (Local Time) from KSLE Reporting Station
Moderate Rain Moderate Rain  
Wind Chill: 50°   Ceiling: 4600
Heat Index: 50°   Visibility: 5mi
Dew Point: 48°   Wind: 6mph
Humidity: 93%   Direction: 200°SSW
Pressure: 29.72"   Gusts: NA
Location:  45.0168°N, 122.927°W
Report Text: KSLE 220956Z AUTO 20005KT 5SM RA BR FEW037 OVC046 10/09 A2972 RMK AO2 SLP064 P0012 T01000089
Loading
Personal Weather Stations






























Interactive Weather Map New forecast layout! Learn more

10-Day Weather Forecast

Advertisements
Track Severe Weather on mobile